Time;durP1;ratioP1;P1;durP2;ratioP2;P2;SDS_P1;SDS_P2;PMS_P1;PMS_P2;Temp;Humidity;BMP_temperature;BMP_pressure;BME280_temperature;BME280_humidity;BME280_pressure;Samples;Min_cycle;Max_cycle;Signal;HPM_P1;HPM_P2
2024/04/09 00:00:08;;;;;;;;;;;;;;;;;;366327;27;1302;-83
2024/04/09 00:00:20;;;;;;;;;;;;;;;;;;367370;26;1146;-83
2024/04/09 00:00:30;;;;;;;;;;;;;;;;;;366362;27;988;-83
2024/04/09 00:00:41;;;;;;;;;;;;;;;;;;366376;27;1480;-83
2024/04/09 00:00:51;;;;;;;;;;;;;;;;;;366350;27;823;-83
2024/04/09 00:01:03;;;;;;;;;;;;;;;;;;366466;27;1016;-83
2024/04/09 00:01:13;;;;;;;;;;;;;;;;;;366480;27;993;-83
2024/04/09 00:01:23;;;;;;;;;;;;;;;;;;366354;27;1164;-83
2024/04/09 00:01:33;;;;;;;;;;;;;;;;;;366445;26;779;-83
2024/04/09 00:01:43;;;;;;;;;;;;;;;;;;368302;26;1025;-83
2024/04/09 00:01:53;;;;;;;;;;;;;;;;;;368771;26;1032;-83
2024/04/09 00:02:04;;;;;;;;;;;;;;;;;;370430;26;1000;-83
2024/04/09 00:02:14;;;;;;;;;;;;;;;;;;370397;26;1578;-83
2024/04/09 00:02:24;;;;;;;;;;;;;;;;;;371922;26;1537;-83
2024/04/09 00:02:34;;;;;;;;;;;;;;;;;;370457;26;1353;-83
2024/04/09 00:02:45;;;;;;;;;;;;;;;;;;368855;26;981;-83
2024/04/09 00:02:55;;;;;;;;;;;;;;;;;;368817;26;934;-83
2024/04/09 00:03:05;;;;;;;;;;;;;;;;;;366408;27;1325;-83
2024/04/09 00:03:16;;;;;;;;;;;;;;;;;;368771;26;1031;-83
2024/04/09 00:03:26;;;;;;;;;;;;;;;;;;367003;26;1689;-83
2024/04/09 00:03:37;;;;;;;;;;;;;;;;;;366511;27;977;-83
2024/04/09 00:03:48;;;;;;;;;;;;;;;;;;364046;27;1194;-83
2024/04/09 00:03:58;;;;;;;;;;;;;;;;;;364076;27;930;-83
2024/04/09 00:04:09;;;;;;;;;;;;;;;;;;364091;27;1001;-83
2024/04/09 00:04:19;;;;;;;;;;;;;;;;;;365906;27;1037;-83
2024/04/09 00:04:30;;;;;;;;;;;;;;;;;;368811;26;972;-83
2024/04/09 00:04:40;;;;;;;;;;;;;;;;;;368789;26;1009;-83
2024/04/09 00:04:51;;;;;;;;;;;;;;;;;;364064;27;1387;-83
2024/04/09 00:05:08;;;;;;;;;;;;;;;;;;368677;26;1277;-83
2024/04/09 00:05:19;;;;;;;;;;;;;;;;;;371192;26;1040;-83
2024/04/09 00:05:32;;;;;;;;;;;;;;;;;;371299;26;818;-83
2024/04/09 00:05:43;;;;;;;;;;;;;;;;;;368819;26;1069;-83
2024/04/09 00:05:54;;;;;;;;;;;;;;;;;;368616;26;1187;-83
2024/04/09 00:06:14;;;;;;;;;;;;;;;;;;368551;26;1309;-83
2024/04/09 00:06:25;;;;;;;;;;;;;;;;;;368671;26;1302;-83
2024/04/09 00:06:35;;;;;;;;;;;;;;;;;;368893;26;850;-83
2024/04/09 00:06:46;;;;;;;;;;;;;;;;;;368754;26;898;-83
2024/04/09 00:06:56;;;;;;;;;;;;;;;;;;371138;26;1337;-83
2024/04/09 00:07:06;;;;;;;;;;;;;;;;;;368747;26;1243;-83
2024/04/09 00:07:17;;;;;;;;;;;;;;;;;;368643;26;1005;-83
2024/04/09 00:07:27;;;;;;;;;;;;;;;;;;369957;26;1730;-83
2024/04/09 00:07:38;;;;;;;;;;;;;;;;;;368493;26;1080;-83
2024/04/09 00:07:48;;;;;;;;;;;;;;;;;;370878;26;1323;-83
2024/04/09 00:07:59;;;;;;;;;;;;;;;;;;366504;27;1076;-83
2024/04/09 00:08:12;;;;;;;;;;;;;;;;;;367883;26;1313;-83
2024/04/09 00:08:22;;;;;;;;;;;;;;;;;;368804;26;1060;-83
2024/04/09 00:08:33;;;;;;;;;;;;;;;;;;368588;26;1257;-83
2024/04/09 00:08:44;;;;;;;;;;;;;;;;;;371157;26;1305;-83
2024/04/09 00:08:55;;;;;;;;;;;;;;;;;;368751;26;1207;-83
2024/04/09 00:09:05;;;;;;;;;;;;;;;;;;367321;26;1301;-83
2024/04/09 00:09:20;;;;;;;;;;;;;;;;;;367799;26;1546;-83
2024/04/09 00:09:31;;;;;;;;;;;;;;;;;;366509;26;1629;-83
2024/04/09 00:09:44;;;;;;;;;;;;;;;;;;366474;27;1019;-83
2024/04/09 00:09:55;;;;;;;;;;;;;;;;;;366447;27;1621;-83
2024/04/09 00:10:09;;;;;;;;;;;;;;;;;;365327;26;1858;-83
2024/04/09 00:10:19;;;;;;;;;;;;;;;;;;366533;27;930;-83
2024/04/09 00:10:31;;;;;;;;;;;;;;;;;;366390;27;1264;-83
2024/04/09 00:10:43;;;;;;;;;;;;;;;;;;362673;27;973;-83
2024/04/09 00:10:53;;;;;;;;;;;;;;;;;;366409;27;1044;-82
2024/04/09 00:11:06;;;;;;;;;;;;;;;;;;366490;27;1008;-83
2024/04/09 00:11:21;;;;;;;;;;;;;;;;;;368663;26;1636;-83
2024/04/09 00:11:32;;;;;;;;;;;;;;;;;;368761;26;1440;-83
2024/04/09 00:11:43;;;;;;;;;;;;;;;;;;368830;26;768;-83
2024/04/09 00:11:53;;;;;;;;;;;;;;;;;;368906;26;759;-83
2024/04/09 00:12:07;;;;;;;;;;;;;;;;;;366356;27;1001;-83
2024/04/09 00:12:21;;;;;;;;;;;;;;;;;;366314;27;1016;-83
2024/04/09 00:12:32;;;;;;;;;;;;;;;;;;366554;26;1492;-83
2024/04/09 00:12:43;;;;;;;;;;;;;;;;;;366518;27;993;-83
2024/04/09 00:12:54;;;;;;;;;;;;;;;;;;366287;27;1662;-83
2024/04/09 00:13:05;;;;;;;;;;;;;;;;;;366551;27;909;-83
2024/04/09 00:13:15;;;;;;;;;;;;;;;;;;366454;27;1144;-83
2024/04/09 00:13:25;;;;;;;;;;;;;;;;;;366432;27;984;-83
2024/04/09 00:13:36;;;;;;;;;;;;;;;;;;366488;27;981;-83
2024/04/09 00:13:58;;;;;;;;;;;;;;;;;;366284;27;1364;-83
2024/04/09 00:14:08;;;;;;;;;;;;;;;;;;364122;27;905;-83
2024/04/09 00:14:18;;;;;;;;;;;;;;;;;;366360;27;1431;-83
2024/04/09 00:14:30;;;;;;;;;;;;;;;;;;366224;27;1048;-83
2024/04/09 00:14:47;;;;;;;;;;;;;;;;;;366431;27;1016;-83
2024/04/09 00:14:59;;;;;;;;;;;;;;;;;;366486;27;1028;-83
2024/04/09 00:15:09;;;;;;;;;;;;;;;;;;366402;27;997;-83
2024/04/09 00:15:19;;;;;;;;;;;;;;;;;;366437;27;989;-83
2024/04/09 00:15:30;;;;;;;;;;;;;;;;;;366329;27;1366;-83
2024/04/09 00:15:40;;;;;;;;;;;;;;;;;;364037;27;1037;-83
2024/04/09 00:15:50;;;;;;;;;;;;;;;;;;364079;27;791;-83
2024/04/09 00:16:00;;;;;;;;;;;;;;;;;;361864;27;780;-83
2024/04/09 00:16:12;;;;;;;;;;;;;;;;;;364100;27;985;-83
2024/04/09 00:16:22;;;;;;;;;;;;;;;;;;366429;27;1013;-83
2024/04/09 00:16:33;;;;;;;;;;;;;;;;;;363836;27;1172;-83
2024/04/09 00:16:43;;;;;;;;;;;;;;;;;;366414;27;965;-83
2024/04/09 00:16:55;;;;;;;;;;;;;;;;;;369618;26;1531;-83
2024/04/09 00:17:05;;;;;;;;;;;;;;;;;;371260;26;1000;-83
2024/04/09 00:17:19;;;;;;;;;;;;;;;;;;368542;26;1280;-83
2024/04/09 00:17:34;;;;;;;;;;;;;;;;;;368776;26;1080;-83
2024/04/09 00:17:55;;;;;;;;;;;;;;;;;;368747;26;1323;-83
2024/04/09 00:18:17;;;;;;;;;;;;;;;;;;367614;26;1585;-82
2024/04/09 00:18:31;;;;;;;;;;;;;;;;;;371279;26;786;-83
2024/04/09 00:18:42;;;;;;;;;;;;;;;;;;368647;26;1542;-83
2024/04/09 00:18:55;;;;;;;;;;;;;;;;;;364018;27;1280;-83
2024/04/09 00:19:07;;;;;;;;;;;;;;;;;;364054;27;1056;-82
2024/04/09 00:19:17;;;;;;;;;;;;;;;;;;363984;27;1041;-83
2024/04/09 00:19:29;;;;;;;;;;;;;;;;;;366142;26;1853;-83
2024/04/09 00:19:39;;;;;;;;;;;;;;;;;;366292;27;1622;-83
2024/04/09 00:19:49;;;;;;;;;;;;;;;;;;366372;27;1294;-83
2024/04/09 00:20:00;;;;;;;;;;;;;;;;;;366114;27;1496;-82
2024/04/09 00:20:17;;;;;;;;;;;;;;;;;;364085;27;985;-83
2024/04/09 00:20:29;;;;;;;;;;;;;;;;;;365565;27;1020;-83
2024/04/09 00:20:42;;;;;;;;;;;;;;;;;;366285;27;1488;-83
2024/04/09 00:20:53;;;;;;;;;;;;;;;;;;368750;26;937;-83
2024/04/09 00:21:03;;;;;;;;;;;;;;;;;;368934;26;929;-83
2024/04/09 00:21:14;;;;;;;;;;;;;;;;;;367540;26;1040;-83
2024/04/09 00:21:24;;;;;;;;;;;;;;;;;;365323;27;985;-83
2024/04/09 00:21:35;;;;;;;;;;;;;;;;;;367463;26;1079;-83
2024/04/09 00:21:45;;;;;;;;;;;;;;;;;;369911;26;977;-83
2024/04/09 00:21:55;;;;;;;;;;;;;;;;;;366313;27;1332;-83
2024/04/09 00:22:05;;;;;;;;;;;;;;;;;;368310;26;1405;-83
2024/04/09 00:22:16;;;;;;;;;;;;;;;;;;371247;26;771;-82
2024/04/09 00:22:28;;;;;;;;;;;;;;;;;;371203;26;1004;-83
2024/04/09 00:22:40;;;;;;;;;;;;;;;;;;368871;26;956;-83
2024/04/09 00:22:54;;;;;;;;;;;;;;;;;;371128;26;1063;-83
2024/04/09 00:23:04;;;;;;;;;;;;;;;;;;368794;26;1055;-83
2024/04/09 00:23:17;;;;;;;;;;;;;;;;;;368743;26;937;-83
2024/04/09 00:23:28;;;;;;;;;;;;;;;;;;368325;26;1456;-83
2024/04/09 00:23:39;;;;;;;;;;;;;;;;;;367852;26;1036;-83
2024/04/09 00:23:50;;;;;;;;;;;;;;;;;;366441;27;1004;-83
2024/04/09 00:24:00;;;;;;;;;;;;;;;;;;367213;26;1009;-83
2024/04/09 00:24:12;;;;;;;;;;;;;;;;;;366298;27;1317;-83
2024/04/09 00:24:22;;;;;;;;;;;;;;;;;;366339;27;1079;-83
2024/04/09 00:24:33;;;;;;;;;;;;;;;;;;371117;26;1329;-83
2024/04/09 00:24:43;;;;;;;;;;;;;;;;;;370658;26;1534;-83
2024/04/09 00:24:54;;;;;;;;;;;;;;;;;;373039;26;1017;-83
2024/04/09 00:25:04;;;;;;;;;;;;;;;;;;373689;26;1028;-83
2024/04/09 00:25:18;;;;;;;;;;;;;;;;;;372844;26;1030;-83
2024/04/09 00:25:28;;;;;;;;;;;;;;;;;;366478;27;747;-83
2024/04/09 00:25:39;;;;;;;;;;;;;;;;;;366417;27;1004;-83
2024/04/09 00:25:49;;;;;;;;;;;;;;;;;;366454;27;1001;-83
2024/04/09 00:26:00;;;;;;;;;;;;;;;;;;368790;26;799;-83
2024/04/09 00:26:10;;;;;;;;;;;;;;;;;;368877;26;997;-83
2024/04/09 00:26:21;;;;;;;;;;;;;;;;;;368892;26;767;-83
2024/04/09 00:26:31;;;;;;;;;;;;;;;;;;368783;26;1016;-83
2024/04/09 00:26:42;;;;;;;;;;;;;;;;;;368627;26;1284;-83
2024/04/09 00:26:52;;;;;;;;;;;;;;;;;;368735;26;1028;-83
2024/04/09 00:27:04;;;;;;;;;;;;;;;;;;371153;26;1047;-83
2024/04/09 00:27:14;;;;;;;;;;;;;;;;;;371197;26;1320;-83
2024/04/09 00:27:24;;;;;;;;;;;;;;;;;;366277;27;1732;-83
2024/04/09 00:27:35;;;;;;;;;;;;;;;;;;366316;27;993;-83
2024/04/09 00:27:45;;;;;;;;;;;;;;;;;;366531;27;810;-83
2024/04/09 00:27:55;;;;;;;;;;;;;;;;;;368791;26;814;-83
2024/04/09 00:28:06;;;;;;;;;;;;;;;;;;368638;26;1493;-82
2024/04/09 00:28:16;;;;;;;;;;;;;;;;;;371116;26;1363;-83
2024/04/09 00:28:26;;;;;;;;;;;;;;;;;;368303;26;1578;-83
2024/04/09 00:28:37;;;;;;;;;;;;;;;;;;368444;26;1744;-83
2024/04/09 00:28:47;;;;;;;;;;;;;;;;;;368819;26;1036;-83
2024/04/09 00:28:57;;;;;;;;;;;;;;;;;;368805;26;1353;-83
2024/04/09 00:29:10;;;;;;;;;;;;;;;;;;368805;26;1043;-83
2024/04/09 00:29:20;;;;;;;;;;;;;;;;;;371088;26;1647;-83
2024/04/09 00:29:31;;;;;;;;;;;;;;;;;;368754;26;964;-83
2024/04/09 00:29:42;;;;;;;;;;;;;;;;;;368775;26;984;-83
2024/04/09 00:29:52;;;;;;;;;;;;;;;;;;368796;26;1063;-83
2024/04/09 00:30:04;;;;;;;;;;;;;;;;;;366364;27;1412;-83
2024/04/09 00:30:17;;;;;;;;;;;;;;;;;;366043;27;1596;-83
2024/04/09 00:30:28;;;;;;;;;;;;;;;;;;368697;26;1397;-83
2024/04/09 00:30:39;;;;;;;;;;;;;;;;;;368714;26;987;-83
2024/04/09 00:30:50;;;;;;;;;;;;;;;;;;371076;26;1031;-83
2024/04/09 00:31:01;;;;;;;;;;;;;;;;;;371205;26;1635;-83
2024/04/09 00:31:11;;;;;;;;;;;;;;;;;;371152;26;1031;-82
2024/04/09 00:31:21;;;;;;;;;;;;;;;;;;368799;26;945;-83
2024/04/09 00:31:31;;;;;;;;;;;;;;;;;;368671;26;1261;-83
2024/04/09 00:31:42;;;;;;;;;;;;;;;;;;368686;26;1239;-83
2024/04/09 00:31:52;;;;;;;;;;;;;;;;;;368795;26;1116;-83
2024/04/09 00:32:02;;;;;;;;;;;;;;;;;;368734;26;928;-83
2024/04/09 00:32:12;;;;;;;;;;;;;;;;;;368762;26;1063;-83
2024/04/09 00:32:22;;;;;;;;;;;;;;;;;;367223;26;1028;-83
2024/04/09 00:32:33;;;;;;;;;;;;;;;;;;368809;26;1038;-83
2024/04/09 00:32:44;;;;;;;;;;;;;;;;;;367004;26;1195;-83
2024/04/09 00:32:54;;;;;;;;;;;;;;;;;;366376;27;1036;-83
2024/04/09 00:33:07;;;;;;;;;;;;;;;;;;366475;27;1015;-83
2024/04/09 00:33:17;;;;;;;;;;;;;;;;;;367509;26;1265;-83
2024/04/09 00:33:28;;;;;;;;;;;;;;;;;;366177;27;1199;-83
2024/04/09 00:33:38;;;;;;;;;;;;;;;;;;368761;26;1226;-83
2024/04/09 00:33:49;;;;;;;;;;;;;;;;;;363806;27;1524;-83
2024/04/09 00:33:59;;;;;;;;;;;;;;;;;;363966;27;1012;-83
2024/04/09 00:34:13;;;;;;;;;;;;;;;;;;364143;27;964;-83
2024/04/09 00:34:23;;;;;;;;;;;;;;;;;;364054;27;1067;-83
2024/04/09 00:34:34;;;;;;;;;;;;;;;;;;364072;27;961;-83
2024/04/09 00:34:44;;;;;;;;;;;;;;;;;;364130;27;1448;-83
2024/04/09 00:34:54;;;;;;;;;;;;;;;;;;363948;27;1221;-83
2024/04/09 00:35:04;;;;;;;;;;;;;;;;;;363890;27;1055;-83
2024/04/09 00:35:15;;;;;;;;;;;;;;;;;;364064;27;929;-83
2024/04/09 00:35:26;;;;;;;;;;;;;;;;;;363993;27;821;-83
2024/04/09 00:35:37;;;;;;;;;;;;;;;;;;363910;27;1220;-83
2024/04/09 00:35:49;;;;;;;;;;;;;;;;;;363755;27;1558;-83
2024/04/09 00:35:59;;;;;;;;;;;;;;;;;;364115;27;989;-83
2024/04/09 00:36:12;;;;;;;;;;;;;;;;;;364008;27;1013;-83
2024/04/09 00:36:22;;;;;;;;;;;;;;;;;;366338;27;1329;-83
2024/04/09 00:36:35;;;;;;;;;;;;;;;;;;366333;27;1270;-83
2024/04/09 00:36:46;;;;;;;;;;;;;;;;;;367265;26;1284;-83
2024/04/09 00:36:57;;;;;;;;;;;;;;;;;;368797;26;1031;-83
2024/04/09 00:37:08;;;;;;;;;;;;;;;;;;368661;26;1254;-83
2024/04/09 00:37:18;;;;;;;;;;;;;;;;;;368736;26;849;-83
2024/04/09 00:37:28;;;;;;;;;;;;;;;;;;366458;27;913;-83
2024/04/09 00:37:41;;;;;;;;;;;;;;;;;;366417;27;791;-83
2024/04/09 00:37:51;;;;;;;;;;;;;;;;;;368681;26;1182;-83
2024/04/09 00:38:06;;;;;;;;;;;;;;;;;;363897;27;1584;-83
2024/04/09 00:38:19;;;;;;;;;;;;;;;;;;363676;27;1428;-83
2024/04/09 00:38:29;;;;;;;;;;;;;;;;;;366208;27;1359;-83
2024/04/09 00:38:40;;;;;;;;;;;;;;;;;;368737;26;984;-83
2024/04/09 00:38:54;;;;;;;;;;;;;;;;;;368792;26;1439;-83
2024/04/09 00:39:15;;;;;;;;;;;;;;;;;;368381;26;1637;-83
2024/04/09 00:39:33;;;;;;;;;;;;;;;;;;368749;26;1854;-83
2024/04/09 00:39:44;;;;;;;;;;;;;;;;;;368065;26;1044;-83
2024/04/09 00:39:54;;;;;;;;;;;;;;;;;;368760;26;1366;-83
2024/04/09 00:40:09;;;;;;;;;;;;;;;;;;370592;26;1169;-83
2024/04/09 00:40:20;;;;;;;;;;;;;;;;;;368612;26;1295;-83
2024/04/09 00:40:30;;;;;;;;;;;;;;;;;;368682;26;1195;-83
2024/04/09 00:40:42;;;;;;;;;;;;;;;;;;368772;26;1004;-83
2024/04/09 00:40:52;;;;;;;;;;;;;;;;;;363991;27;1213;-83
2024/04/09 00:41:05;;;;;;;;;;;;;;;;;;364095;27;764;-83
2024/04/09 00:41:16;;;;;;;;;;;;;;;;;;368692;26;1322;-83
2024/04/09 00:41:26;;;;;;;;;;;;;;;;;;367927;26;1559;-83
2024/04/09 00:41:36;;;;;;;;;;;;;;;;;;367008;26;996;-83
2024/04/09 00:41:47;;;;;;;;;;;;;;;;;;368686;26;1174;-83
2024/04/09 00:41:57;;;;;;;;;;;;;;;;;;366449;27;1080;-83
2024/04/09 00:42:09;;;;;;;;;;;;;;;;;;366422;27;1032;-83
2024/04/09 00:42:20;;;;;;;;;;;;;;;;;;366442;27;1044;-83
2024/04/09 00:42:30;;;;;;;;;;;;;;;;;;366384;27;740;-83
2024/04/09 00:42:40;;;;;;;;;;;;;;;;;;366050;27;1334;-83
2024/04/09 00:42:54;;;;;;;;;;;;;;;;;;366303;26;925;-83
2024/04/09 00:43:04;;;;;;;;;;;;;;;;;;366426;27;1000;-83
2024/04/09 00:43:14;;;;;;;;;;;;;;;;;;364573;27;893;-83
2024/04/09 00:43:24;;;;;;;;;;;;;;;;;;366305;27;1385;-83
2024/04/09 00:43:34;;;;;;;;;;;;;;;;;;366420;27;1031;-83
2024/04/09 00:43:45;;;;;;;;;;;;;;;;;;368175;26;961;-83
2024/04/09 00:43:55;;;;;;;;;;;;;;;;;;367438;26;1530;-83
2024/04/09 00:44:07;;;;;;;;;;;;;;;;;;368546;26;1705;-83
2024/04/09 00:44:17;;;;;;;;;;;;;;;;;;368805;26;955;-83
2024/04/09 00:44:29;;;;;;;;;;;;;;;;;;368721;26;1299;-83
2024/04/09 00:44:40;;;;;;;;;;;;;;;;;;368776;26;1223;-83
2024/04/09 00:44:51;;;;;;;;;;;;;;;;;;368936;26;991;-83
2024/04/09 00:45:01;;;;;;;;;;;;;;;;;;368794;26;1016;-83
2024/04/09 00:45:11;;;;;;;;;;;;;;;;;;368708;26;920;-83
2024/04/09 00:45:22;;;;;;;;;;;;;;;;;;366331;27;1229;-83
2024/04/09 00:45:32;;;;;;;;;;;;;;;;;;366368;27;1071;-83
2024/04/09 00:45:44;;;;;;;;;;;;;;;;;;363941;27;1284;-83
2024/04/09 00:45:55;;;;;;;;;;;;;;;;;;366389;27;817;-83
2024/04/09 00:46:05;;;;;;;;;;;;;;;;;;366493;27;758;-83
2024/04/09 00:46:16;;;;;;;;;;;;;;;;;;366408;27;1047;-83
2024/04/09 00:46:28;;;;;;;;;;;;;;;;;;366412;27;1571;-83
2024/04/09 00:46:38;;;;;;;;;;;;;;;;;;366296;27;1048;-83
2024/04/09 00:46:48;;;;;;;;;;;;;;;;;;366461;27;993;-83
2024/04/09 00:46:59;;;;;;;;;;;;;;;;;;363907;27;1278;-82
2024/04/09 00:47:14;;;;;;;;;;;;;;;;;;364124;27;1001;-83
2024/04/09 00:47:25;;;;;;;;;;;;;;;;;;366217;27;1271;-83
2024/04/09 00:47:35;;;;;;;;;;;;;;;;;;366402;27;1079;-83
2024/04/09 00:47:48;;;;;;;;;;;;;;;;;;368706;26;1265;-83
2024/04/09 00:48:00;;;;;;;;;;;;;;;;;;366939;26;1552;-83
2024/04/09 00:48:11;;;;;;;;;;;;;;;;;;367547;26;1612;-83
2024/04/09 00:48:21;;;;;;;;;;;;;;;;;;368595;26;1436;-83
2024/04/09 00:48:33;;;;;;;;;;;;;;;;;;369764;26;1335;-83
2024/04/09 00:48:44;;;;;;;;;;;;;;;;;;371166;26;999;-82
2024/04/09 00:48:54;;;;;;;;;;;;;;;;;;368834;26;1007;-83
2024/04/09 00:49:04;;;;;;;;;;;;;;;;;;368734;26;1067;-83
2024/04/09 00:49:15;;;;;;;;;;;;;;;;;;368860;26;1020;-83
2024/04/09 00:49:25;;;;;;;;;;;;;;;;;;368732;26;928;-83
2024/04/09 00:49:35;;;;;;;;;;;;;;;;;;368555;26;1297;-83
2024/04/09 00:49:47;;;;;;;;;;;;;;;;;;369134;26;1310;-83
2024/04/09 00:49:57;;;;;;;;;;;;;;;;;;368813;26;739;-83
2024/04/09 00:50:11;;;;;;;;;;;;;;;;;;368741;26;1063;-83
2024/04/09 00:50:21;;;;;;;;;;;;;;;;;;371104;26;1067;-83
2024/04/09 00:50:32;;;;;;;;;;;;;;;;;;371173;26;1108;-83
2024/04/09 00:50:45;;;;;;;;;;;;;;;;;;366448;27;1091;-83
2024/04/09 00:50:56;;;;;;;;;;;;;;;;;;371123;26;1071;-83
2024/04/09 00:51:07;;;;;;;;;;;;;;;;;;368785;26;1107;-83
2024/04/09 00:51:18;;;;;;;;;;;;;;;;;;368621;26;778;-83
2024/04/09 00:51:32;;;;;;;;;;;;;;;;;;366679;26;1488;-82
2024/04/09 00:51:44;;;;;;;;;;;;;;;;;;368598;26;1574;-83
2024/04/09 00:51:55;;;;;;;;;;;;;;;;;;373421;26;1341;-83
2024/04/09 00:52:05;;;;;;;;;;;;;;;;;;373611;26;1046;-83
2024/04/09 00:52:15;;;;;;;;;;;;;;;;;;373543;26;996;-83
2024/04/09 00:52:26;;;;;;;;;;;;;;;;;;368651;26;1316;-83
2024/04/09 00:52:38;;;;;;;;;;;;;;;;;;368738;26;856;-83
2024/04/09 00:52:48;;;;;;;;;;;;;;;;;;368825;26;1008;-83
2024/04/09 00:52:59;;;;;;;;;;;;;;;;;;368612;26;917;-83
2024/04/09 00:53:15;;;;;;;;;;;;;;;;;;368762;26;1005;-83
2024/04/09 00:53:26;;;;;;;;;;;;;;;;;;368828;26;1075;-83
2024/04/09 00:53:36;;;;;;;;;;;;;;;;;;368738;26;1043;-83
2024/04/09 00:53:48;;;;;;;;;;;;;;;;;;363919;27;1266;-83
2024/04/09 00:53:59;;;;;;;;;;;;;;;;;;363905;27;1239;-83
2024/04/09 00:54:10;;;;;;;;;;;;;;;;;;364074;27;1040;-83
2024/04/09 00:54:21;;;;;;;;;;;;;;;;;;364997;27;2020;-83
2024/04/09 00:54:32;;;;;;;;;;;;;;;;;;366378;27;1637;-83
2024/04/09 00:54:44;;;;;;;;;;;;;;;;;;366143;27;1313;-83
2024/04/09 00:54:57;;;;;;;;;;;;;;;;;;366447;27;844;-83
2024/04/09 00:55:10;;;;;;;;;;;;;;;;;;368703;26;1296;-83
2024/04/09 00:55:25;;;;;;;;;;;;;;;;;;368920;26;790;-83
2024/04/09 00:55:40;;;;;;;;;;;;;;;;;;368800;26;893;-83
2024/04/09 00:55:52;;;;;;;;;;;;;;;;;;371072;26;1415;-83
2024/04/09 00:56:03;;;;;;;;;;;;;;;;;;366203;27;1313;-83
2024/04/09 00:56:14;;;;;;;;;;;;;;;;;;366199;27;1358;-83
2024/04/09 00:56:25;;;;;;;;;;;;;;;;;;366210;27;992;-83
2024/04/09 00:56:37;;;;;;;;;;;;;;;;;;366381;27;1001;-83
2024/04/09 00:56:47;;;;;;;;;;;;;;;;;;364053;27;854;-83
2024/04/09 00:56:58;;;;;;;;;;;;;;;;;;364036;27;1060;-83
2024/04/09 00:57:08;;;;;;;;;;;;;;;;;;364039;27;1005;-83
2024/04/09 00:57:19;;;;;;;;;;;;;;;;;;364076;27;1048;-83
2024/04/09 00:57:29;;;;;;;;;;;;;;;;;;364007;27;985;-83
2024/04/09 00:57:39;;;;;;;;;;;;;;;;;;363972;27;1012;-83
2024/04/09 00:57:52;;;;;;;;;;;;;;;;;;366840;26;1306;-81
2024/04/09 00:58:03;;;;;;;;;;;;;;;;;;366436;26;941;-83
2024/04/09 00:58:14;;;;;;;;;;;;;;;;;;365964;26;1207;-83
2024/04/09 00:58:24;;;;;;;;;;;;;;;;;;365969;26;1000;-83
2024/04/09 00:58:34;;;;;;;;;;;;;;;;;;366298;27;897;-83
2024/04/09 00:58:46;;;;;;;;;;;;;;;;;;366263;27;1199;-83
2024/04/09 00:58:56;;;;;;;;;;;;;;;;;;366296;27;993;-83
2024/04/09 00:59:06;;;;;;;;;;;;;;;;;;368744;26;1298;-83
2024/04/09 00:59:16;;;;;;;;;;;;;;;;;;368596;26;1028;-83
2024/04/09 00:59:28;;;;;;;;;;;;;;;;;;367778;26;1815;-83
2024/04/09 00:59:39;;;;;;;;;;;;;;;;;;368390;26;1678;-83
2024/04/09 00:59:49;;;;;;;;;;;;;;;;;;370287;26;1424;-83
2024/04/09 01:00:00;;;;;;;;;;;;;;;;;;371011;26;1007;-83
2024/04/09 01:00:12;;;;;;;;;;;;;;;;;;371092;26;963;-82
2024/04/09 01:00:22;;;;;;;;;;;;;;;;;;368089;26;1542;-82
2024/04/09 01:00:33;;;;;;;;;;;;;;;;;;368720;26;1322;-83
2024/04/09 01:00:43;;;;;;;;;;;;;;;;;;368514;26;1184;-83
2024/04/09 01:00:53;;;;;;;;;;;;;;;;;;366325;27;1008;-83
2024/04/09 01:01:04;;;;;;;;;;;;;;;;;;364274;26;1257;-83
2024/04/09 01:01:16;;;;;;;;;;;;;;;;;;368745;26;1246;-83
2024/04/09 01:01:26;;;;;;;;;;;;;;;;;;366361;27;944;-83
2024/04/09 01:01:40;;;;;;;;;;;;;;;;;;368654;26;1194;-83
2024/04/09 01:01:51;;;;;;;;;;;;;;;;;;371211;26;887;-83
2024/04/09 01:02:04;;;;;;;;;;;;;;;;;;368457;26;1051;-82
2024/04/09 01:02:14;;;;;;;;;;;;;;;;;;366376;27;964;-83
2024/04/09 01:02:26;;;;;;;;;;;;;;;;;;366224;27;877;-82
2024/04/09 01:02:37;;;;;;;;;;;;;;;;;;371003;26;1233;-83
2024/04/09 01:02:50;;;;;;;;;;;;;;;;;;370698;26;1471;-83
2024/04/09 01:03:00;;;;;;;;;;;;;;;;;;368665;26;1445;-82
2024/04/09 01:03:10;;;;;;;;;;;;;;;;;;368602;26;1055;-83
2024/04/09 01:03:21;;;;;;;;;;;;;;;;;;368731;26;996;-83
2024/04/09 01:03:31;;;;;;;;;;;;;;;;;;368478;26;1230;-83
2024/04/09 01:03:42;;;;;;;;;;;;;;;;;;371049;26;1016;-83
2024/04/09 01:03:52;;;;;;;;;;;;;;;;;;370990;26;959;-83
2024/04/09 01:04:03;;;;;;;;;;;;;;;;;;371086;26;1273;-83
2024/04/09 01:04:13;;;;;;;;;;;;;;;;;;371150;26;755;-83
2024/04/09 01:04:23;;;;;;;;;;;;;;;;;;372734;26;1205;-83
2024/04/09 01:04:33;;;;;;;;;;;;;;;;;;370944;26;1337;-83
2024/04/09 01:04:44;;;;;;;;;;;;;;;;;;370531;26;1441;-83
2024/04/09 01:04:54;;;;;;;;;;;;;;;;;;363953;27;826;-83
2024/04/09 01:05:05;;;;;;;;;;;;;;;;;;364082;27;938;-83
2024/04/09 01:05:16;;;;;;;;;;;;;;;;;;363913;27;1064;-83
2024/04/09 01:05:26;;;;;;;;;;;;;;;;;;363790;27;839;-83
2024/04/09 01:05:37;;;;;;;;;;;;;;;;;;363851;27;1293;-83
2024/04/09 01:05:47;;;;;;;;;;;;;;;;;;366336;27;1009;-83
2024/04/09 01:05:58;;;;;;;;;;;;;;;;;;366212;27;1048;-83
2024/04/09 01:06:09;;;;;;;;;;;;;;;;;;366407;27;1016;-83
2024/04/09 01:06:19;;;;;;;;;;;;;;;;;;363938;27;1024;-83
2024/04/09 01:06:30;;;;;;;;;;;;;;;;;;363984;27;1037;-83
2024/04/09 01:06:42;;;;;;;;;;;;;;;;;;363913;27;977;-83
2024/04/09 01:06:52;;;;;;;;;;;;;;;;;;361707;27;1052;-83
2024/04/09 01:07:03;;;;;;;;;;;;;;;;;;361780;27;923;-83
2024/04/09 01:07:14;;;;;;;;;;;;;;;;;;363839;27;1315;-83
2024/04/09 01:07:25;;;;;;;;;;;;;;;;;;363903;27;1184;-83
2024/04/09 01:07:37;;;;;;;;;;;;;;;;;;366178;27;1005;-83
2024/04/09 01:07:47;;;;;;;;;;;;;;;;;;368616;26;1278;-83
2024/04/09 01:07:57;;;;;;;;;;;;;;;;;;368386;26;1287;-83
2024/04/09 01:08:07;;;;;;;;;;;;;;;;;;366281;26;1633;-83
2024/04/09 01:08:18;;;;;;;;;;;;;;;;;;365848;27;1317;-83
2024/04/09 01:08:28;;;;;;;;;;;;;;;;;;366303;26;1058;-83
2024/04/09 01:08:38;;;;;;;;;;;;;;;;;;366157;27;1538;-82
2024/04/09 01:08:48;;;;;;;;;;;;;;;;;;364044;27;973;-83
2024/04/09 01:08:59;;;;;;;;;;;;;;;;;;366185;26;1035;-83
2024/04/09 01:09:09;;;;;;;;;;;;;;;;;;367766;26;1989;-83
2024/04/09 01:09:20;;;;;;;;;;;;;;;;;;368660;26;1063;-83
2024/04/09 01:09:30;;;;;;;;;;;;;;;;;;368748;26;838;-83
2024/04/09 01:09:41;;;;;;;;;;;;;;;;;;366308;26;1060;-83
2024/04/09 01:09:51;;;;;;;;;;;;;;;;;;366317;27;1432;-83
2024/04/09 01:10:01;;;;;;;;;;;;;;;;;;365962;27;1657;-83
2024/04/09 01:10:11;;;;;;;;;;;;;;;;;;366111;27;1431;-83
2024/04/09 01:10:22;;;;;;;;;;;;;;;;;;366217;27;1221;-83
2024/04/09 01:10:32;;;;;;;;;;;;;;;;;;366046;27;1006;-82
2024/04/09 01:10:42;;;;;;;;;;;;;;;;;;366136;27;1048;-83
2024/04/09 01:10:52;;;;;;;;;;;;;;;;;;368197;26;1218;-83
2024/04/09 01:11:03;;;;;;;;;;;;;;;;;;367812;26;1536;-82
2024/04/09 01:11:13;;;;;;;;;;;;;;;;;;368568;26;1047;-83
2024/04/09 01:11:23;;;;;;;;;;;;;;;;;;368724;26;996;-83
2024/04/09 01:11:33;;;;;;;;;;;;;;;;;;368459;26;1025;-83
2024/04/09 01:11:44;;;;;;;;;;;;;;;;;;368993;26;1443;-83
2024/04/09 01:11:54;;;;;;;;;;;;;;;;;;368519;26;1008;-83
2024/04/09 01:12:04;;;;;;;;;;;;;;;;;;371011;26;1241;-83
2024/04/09 01:12:15;;;;;;;;;;;;;;;;;;370960;26;975;-83
2024/04/09 01:12:25;;;;;;;;;;;;;;;;;;373177;26;1269;-83
2024/04/09 01:12:35;;;;;;;;;;;;;;;;;;368483;26;1008;-83
2024/04/09 01:12:45;;;;;;;;;;;;;;;;;;368616;26;1380;-83
2024/04/09 01:12:59;;;;;;;;;;;;;;;;;;368658;26;996;-83
2024/04/09 01:13:09;;;;;;;;;;;;;;;;;;368742;26;985;-83
2024/04/09 01:13:19;;;;;;;;;;;;;;;;;;368686;26;942;-83
2024/04/09 01:13:29;;;;;;;;;;;;;;;;;;368763;26;1004;-83
2024/04/09 01:13:41;;;;;;;;;;;;;;;;;;368566;26;1028;-83
2024/04/09 01:13:53;;;;;;;;;;;;;;;;;;368605;26;1274;-83
2024/04/09 01:14:03;;;;;;;;;;;;;;;;;;370940;26;1267;-83
2024/04/09 01:14:13;;;;;;;;;;;;;;;;;;371088;26;908;-83
2024/04/09 01:14:24;;;;;;;;;;;;;;;;;;370879;26;1226;-83
2024/04/09 01:14:34;;;;;;;;;;;;;;;;;;368710;26;981;-83
2024/04/09 01:14:45;;;;;;;;;;;;;;;;;;368535;26;814;-83
2024/04/09 01:14:55;;;;;;;;;;;;;;;;;;368740;26;965;-83
2024/04/09 01:15:05;;;;;;;;;;;;;;;;;;367683;26;1455;-83
2024/04/09 01:15:17;;;;;;;;;;;;;;;;;;366389;27;1048;-83
2024/04/09 01:15:27;;;;;;;;;;;;;;;;;;366437;27;775;-83
2024/04/09 01:15:37;;;;;;;;;;;;;;;;;;366445;26;1189;-83
2024/04/09 01:15:48;;;;;;;;;;;;;;;;;;368712;26;984;-83
2024/04/09 01:16:01;;;;;;;;;;;;;;;;;;368719;26;985;-83
2024/04/09 01:16:11;;;;;;;;;;;;;;;;;;368808;26;1052;-83
2024/04/09 01:16:21;;;;;;;;;;;;;;;;;;370222;26;740;-83
2024/04/09 01:16:33;;;;;;;;;;;;;;;;;;371228;26;941;-83
2024/04/09 01:16:43;;;;;;;;;;;;;;;;;;372813;26;1568;-83
2024/04/09 01:16:53;;;;;;;;;;;;;;;;;;374262;26;1773;-83
2024/04/09 01:17:04;;;;;;;;;;;;;;;;;;372326;26;1471;-83
2024/04/09 01:17:15;;;;;;;;;;;;;;;;;;373407;26;1266;-83
2024/04/09 01:17:25;;;;;;;;;;;;;;;;;;373304;26;1039;-83
2024/04/09 01:17:35;;;;;;;;;;;;;;;;;;371240;26;979;-83
2024/04/09 01:17:45;;;;;;;;;;;;;;;;;;370875;26;1321;-83
2024/04/09 01:17:56;;;;;;;;;;;;;;;;;;368754;26;1052;-83
2024/04/09 01:18:06;;;;;;;;;;;;;;;;;;366054;27;1294;-83
2024/04/09 01:18:17;;;;;;;;;;;;;;;;;;367150;26;1325;-83
2024/04/09 01:18:27;;;;;;;;;;;;;;;;;;368517;26;1032;-83
2024/04/09 01:18:37;;;;;;;;;;;;;;;;;;366316;26;981;-83
2024/04/09 01:18:48;;;;;;;;;;;;;;;;;;365692;27;1571;-82
2024/04/09 01:18:58;;;;;;;;;;;;;;;;;;366359;26;1741;-83